createdAt,value
2018-12-10T00:01:00.351Z,100636.78
2018-12-10T00:02:02.898Z,100639.20
2018-12-10T00:04:42.446Z,100643.67
2018-12-10T00:05:44.908Z,100649.42
2018-12-10T00:06:47.382Z,100647.80
2018-12-10T00:07:49.884Z,100651.70
2018-12-10T00:08:52.395Z,100656.73
2018-12-10T00:09:54.911Z,100654.88
2018-12-10T00:10:57.372Z,100659.34
2018-12-10T00:11:59.846Z,100658.53
2018-12-10T00:13:02.309Z,100655.03
2018-12-10T00:14:04.865Z,100665.81
2018-12-10T00:15:07.510Z,100662.31
2018-12-10T00:16:09.973Z,100662.64
2018-12-10T00:17:12.461Z,100662.73
2018-12-10T00:18:14.944Z,100660.87
2018-12-10T00:19:17.431Z,100659.02
2018-12-10T00:20:19.977Z,100672.31
2018-12-10T00:21:22.460Z,100666.09
2018-12-10T00:22:24.943Z,100674.41
2018-12-10T00:23:27.440Z,100671.66
2018-12-10T00:24:29.937Z,100672.79
2018-12-10T00:25:32.414Z,100668.51
2018-12-10T00:26:34.894Z,100674.59
2018-12-10T00:27:37.373Z,100663.66
2018-12-10T00:28:39.863Z,100677.19
2018-12-10T00:29:42.638Z,100675.58
2018-12-10T00:30:45.119Z,100675.24
2018-12-10T00:31:47.590Z,100671.98
2018-12-10T00:32:50.068Z,100682.05
2018-12-10T00:33:52.544Z,100679.02
2018-12-10T00:34:55.063Z,100679.98
2018-12-10T00:35:57.528Z,100682.34
2018-12-10T00:36:59.984Z,100678.30
2018-12-10T00:38:02.478Z,100684.62
2018-12-10T00:39:06.629Z,100687.04
2018-12-10T00:40:09.284Z,100691.98
2018-12-10T00:41:11.758Z,100688.90
2018-12-10T00:42:14.299Z,100694.64
2018-12-10T00:43:16.774Z,100693.84
2018-12-10T00:44:19.256Z,100693.03
2018-12-10T00:45:21.815Z,100690.27
2018-12-10T00:46:24.454Z,100690.27
2018-12-10T00:47:26.924Z,100694.73
2018-12-10T00:48:29.413Z,100698.06
2018-12-10T00:49:32.059Z,100698.39
2018-12-10T00:50:34.544Z,100699.29
2018-12-10T00:51:37.023Z,100697.11
2018-12-10T00:52:39.489Z,100699.62
2018-12-10T00:53:41.976Z,100700.48
2018-12-10T00:54:44.480Z,100705.25
2018-12-10T00:55:47.008Z,100703.06
2018-12-10T00:56:49.494Z,100703.63
2018-12-10T00:57:52.230Z,100704.53
2018-12-10T00:58:54.753Z,100706.00
2018-12-10T00:59:57.246Z,100706.33
2018-12-10T01:00:59.820Z,100713.87
2018-12-10T01:02:02.291Z,100717.52
2018-12-10T01:03:04.774Z,100714.52
2018-12-10T01:04:07.260Z,100717.34
2018-12-10T01:05:09.867Z,100720.17
2018-12-10T01:06:12.366Z,100719.70
2018-12-10T01:07:14.951Z,100721.16
2018-12-10T01:08:17.738Z,100724.81
2018-12-10T01:09:20.238Z,100723.19
2018-12-10T01:10:22.717Z,100728.13
2018-12-10T01:11:25.218Z,100727.23
2018-12-10T01:12:27.714Z,100733.95
2018-12-10T01:13:30.205Z,100729.73
2018-12-10T01:14:32.690Z,100723.98
2018-12-10T01:15:35.257Z,100727.95
2018-12-10T01:16:37.769Z,100734.50
2018-12-10T01:17:40.254Z,100732.23
2018-12-10T01:18:42.722Z,100730.31
2018-12-10T01:19:45.192Z,100730.97
2018-12-10T01:20:47.686Z,100738.02
2018-12-10T01:21:50.208Z,100747.98
2018-12-10T01:22:52.676Z,100743.52
2018-12-10T01:23:55.158Z,100752.13
2018-12-10T01:24:57.654Z,100749.61
2018-12-10T01:26:00.152Z,100748.23
2018-12-10T01:27:02.654Z,100752.69
2018-12-10T01:28:05.130Z,100756.58
2018-12-10T01:29:07.626Z,100749.69
2018-12-10T01:30:10.112Z,100760.23
2018-12-10T01:31:12.588Z,100756.09
2018-12-10T01:32:15.086Z,100760.29
2018-12-10T01:33:17.563Z,100763.10
2018-12-10T01:34:20.056Z,100760.44
2018-12-10T01:35:22.520Z,100762.14
2018-12-10T01:36:25.019Z,100763.27
2018-12-10T01:37:27.523Z,100766.03
2018-12-10T01:38:30.006Z,100771.63
2018-12-10T01:39:32.473Z,100782.97
2018-12-10T01:40:34.940Z,100779.49
2018-12-10T01:41:37.404Z,100781.20
2018-12-10T01:42:39.881Z,100782.63
2018-12-10T01:43:42.382Z,100776.88
2018-12-10T01:44:44.893Z,100778.02
2018-12-10T01:45:47.383Z,100783.04
2018-12-10T01:46:49.844Z,100782.23
2018-12-10T01:47:52.347Z,100789.20
2018-12-10T01:48:54.837Z,100794.46
2018-12-10T01:49:57.311Z,100789.84
2018-12-10T01:50:59.799Z,100787.34
2018-12-10T01:52:02.282Z,100789.44
2018-12-10T01:53:04.774Z,100796.16
2018-12-10T01:54:07.274Z,100791.64
2018-12-10T01:55:09.762Z,100793.33
2018-12-10T01:56:12.261Z,100787.59
2018-12-10T01:57:14.746Z,100791.59
2018-12-10T01:58:17.284Z,100784.61
2018-12-10T01:59:19.762Z,100783.14
2018-12-10T02:00:22.292Z,100789.70
2018-12-10T02:01:24.795Z,100791.33
2018-12-10T02:02:27.261Z,100800.73
2018-12-10T02:03:29.763Z,100797.73
2018-12-10T02:04:32.257Z,100806.23
2018-12-10T02:05:34.750Z,100806.72
2018-12-10T02:06:37.410Z,100811.69
2018-12-10T02:07:39.948Z,100806.72
2018-12-10T02:08:42.474Z,100811.99
2018-12-10T02:09:44.946Z,100810.13
2018-12-10T02:10:47.407Z,100810.13
2018-12-10T02:11:49.875Z,100813.22
2018-12-10T02:12:52.399Z,100810.55
2018-12-10T02:13:54.887Z,100813.39
2018-12-10T02:14:57.386Z,100817.84
2018-12-10T02:15:59.943Z,100818.47
2018-12-10T02:17:02.456Z,100821.47
2018-12-10T02:18:04.956Z,100824.84
2018-12-10T02:19:07.460Z,100821.61
2018-12-10T02:20:09.967Z,100824.45
2018-12-10T02:21:12.506Z,100824.53
2018-12-10T02:22:14.969Z,100833.69
2018-12-10T02:23:17.434Z,100827.37
2018-12-10T02:24:19.925Z,100828.02
2018-12-10T02:25:22.464Z,100830.77
2018-12-10T02:26:24.944Z,100832.53
2018-12-10T02:27:27.424Z,100828.72
2018-12-10T02:30:06.752Z,100827.51
2018-12-10T02:31:09.339Z,100827.27
2018-12-10T02:32:11.801Z,100831.88
2018-12-10T02:33:14.301Z,100825.72
2018-12-10T02:34:16.809Z,100829.86
2018-12-10T02:35:19.294Z,100827.20
2018-12-10T02:36:21.751Z,100821.69
2018-12-10T02:37:24.220Z,100825.09
2018-12-10T02:38:26.694Z,100831.53
2018-12-10T02:39:29.237Z,100827.64
2018-12-10T02:40:31.722Z,100835.59
2018-12-10T02:41:34.213Z,100836.06
2018-12-10T02:42:36.676Z,100831.94
2018-12-10T02:43:39.159Z,100837.03
2018-12-10T02:44:41.678Z,100840.36
2018-12-10T02:45:44.234Z,100825.29
2018-12-10T02:46:46.727Z,100834.93
2018-12-10T02:47:49.225Z,100836.06
2018-12-10T02:48:52.225Z,100838.82
2018-12-10T02:49:54.747Z,100834.45
2018-12-10T02:50:57.257Z,100838.25
2018-12-10T02:52:01.819Z,100840.20
2018-12-10T02:53:04.304Z,100839.47
2018-12-10T02:54:06.784Z,100839.23
2018-12-10T02:55:09.286Z,100840.37
2018-12-10T02:56:11.754Z,100840.19
2018-12-10T02:57:14.217Z,100842.12
2018-12-10T02:58:16.706Z,100842.98
2018-12-10T02:59:19.177Z,100843.56
2018-12-10T03:00:21.665Z,100840.65
2018-12-10T03:01:24.155Z,100848.42
2018-12-10T03:02:26.633Z,100847.94
2018-12-10T03:03:29.190Z,100848.51
2018-12-10T03:04:31.753Z,100848.59
2018-12-10T03:05:34.250Z,100848.11
2018-12-10T03:06:36.754Z,100853.10
2018-12-10T03:07:39.291Z,100850.43
2018-12-10T03:08:41.793Z,100854.88
2018-12-10T03:09:44.288Z,100847.27
2018-12-10T03:10:46.783Z,100850.34
2018-12-10T03:11:49.253Z,100856.99
2018-12-10T03:12:51.802Z,100850.91
2018-12-10T03:13:54.323Z,100854.16
2018-12-10T03:14:56.921Z,100850.19
2018-12-10T03:15:59.420Z,100851.67
2018-12-10T03:17:01.917Z,100854.83
2018-12-10T03:18:04.417Z,100853.53
2018-12-10T03:19:06.907Z,100854.77
2018-12-10T03:20:09.401Z,100860.80
2018-12-10T03:21:11.923Z,100860.70
2018-12-10T03:22:14.412Z,100859.48
2018-12-10T03:23:16.880Z,100864.10
2018-12-10T03:24:19.353Z,100859.41
2018-12-10T03:25:21.856Z,100858.27
2018-12-10T03:26:24.415Z,100869.05
2018-12-10T03:27:26.894Z,100869.56
2018-12-10T03:28:29.386Z,100868.72
2018-12-10T03:29:31.891Z,100862.97
2018-12-10T03:30:34.359Z,100865.48
2018-12-10T03:31:36.870Z,100870.51
2018-12-10T03:32:39.361Z,100873.27
2018-12-10T03:33:41.847Z,100870.03
2018-12-10T03:34:44.393Z,100869.78
2018-12-10T03:35:46.919Z,100876.75
2018-12-10T03:37:51.164Z,100881.22
2018-12-10T03:38:53.666Z,100877.13
2018-12-10T03:39:56.209Z,100880.99
2018-12-10T03:40:58.824Z,100881.89
2018-12-10T03:42:01.321Z,100873.46
2018-12-10T03:43:03.821Z,100885.62
2018-12-10T03:44:06.279Z,100878.00
2018-12-10T03:45:08.807Z,100879.13
2018-12-10T03:46:11.393Z,100880.02
2018-12-10T03:47:13.902Z,100878.97
2018-12-10T03:48:16.455Z,100882.59
2018-12-10T03:49:18.958Z,100884.29
2018-12-10T03:50:21.437Z,100887.69
2018-12-10T03:51:23.935Z,100883.07
2018-12-10T03:52:26.420Z,100880.64
2018-12-10T03:53:28.899Z,100882.34
2018-12-10T03:54:31.394Z,100881.45
2018-12-10T03:55:33.877Z,100884.94
2018-12-10T03:56:36.347Z,100882.91
2018-12-10T03:57:38.917Z,100890.39
2018-12-10T03:58:41.534Z,100894.04
2018-12-10T03:59:44.024Z,100897.23
2018-12-10T04:00:46.492Z,100893.77
2018-12-10T04:01:48.970Z,100880.97
2018-12-10T04:02:51.465Z,100877.88
2018-12-10T04:03:54.208Z,100879.50
2018-12-10T04:04:56.702Z,100884.72
2018-12-10T04:05:59.171Z,100885.53
2018-12-10T04:07:01.646Z,100881.39
2018-12-10T04:08:04.186Z,100882.20
2018-12-10T04:09:07.022Z,100885.25
2018-12-10T04:10:09.529Z,100887.77
2018-12-10T04:11:11.991Z,100888.91
2018-12-10T04:12:14.486Z,100885.91
2018-12-10T04:13:16.985Z,100888.18
2018-12-10T04:14:19.480Z,100895.39
2018-12-10T04:15:21.963Z,100896.45
2018-12-10T04:16:24.537Z,100893.20
2018-12-10T04:17:27.039Z,100897.98
2018-12-10T04:19:31.285Z,100900.23
2018-12-10T04:20:33.766Z,100903.88
2018-12-10T04:21:36.229Z,100905.25
2018-12-10T04:22:38.822Z,100903.11
2018-12-10T04:23:41.307Z,100906.19
2018-12-10T04:24:45.650Z,100912.35
2018-12-10T04:25:48.302Z,100912.11
2018-12-10T04:26:50.798Z,100914.38
2018-12-10T04:27:53.295Z,100912.51
2018-12-10T04:28:55.776Z,100912.84
2018-12-10T04:29:58.255Z,100905.43
2018-12-10T04:31:00.716Z,100903.81
2018-12-10T04:32:03.282Z,100907.45
2018-12-10T04:33:05.763Z,100911.09
2018-12-10T04:34:08.241Z,100918.72
2018-12-10T04:35:10.719Z,100906.52
2018-12-10T04:36:13.200Z,100914.94
2018-12-10T04:37:15.676Z,100905.46
2018-12-10T04:38:18.153Z,100915.43
2018-12-10T04:39:20.641Z,100918.41
2018-12-10T04:40:23.142Z,100913.87
2018-12-10T04:41:25.624Z,100914.35
2018-12-10T04:42:28.126Z,100923.91
2018-12-10T04:43:30.593Z,100916.70
2018-12-10T04:44:33.089Z,100914.19
2018-12-10T04:45:35.577Z,100921.92
2018-12-10T04:46:38.078Z,100924.35
2018-12-10T04:47:40.599Z,100925.48
2018-12-10T04:48:43.078Z,100922.45
2018-12-10T04:49:45.580Z,100938.98
2018-12-10T04:50:48.077Z,100930.43
2018-12-10T04:51:50.557Z,100935.94
2018-12-10T04:52:53.075Z,100924.73
2018-12-10T04:53:55.567Z,100928.86
2018-12-10T04:54:58.050Z,100941.02
2018-12-10T04:56:00.539Z,100936.97
2018-12-10T04:57:03.022Z,100937.05
2018-12-10T04:58:05.515Z,100948.95
2018-12-10T04:59:08.035Z,100955.33
2018-12-10T05:00:10.576Z,100944.36
2018-12-10T05:01:13.072Z,100957.32
2018-12-10T05:02:15.551Z,100953.46
2018-12-10T05:03:20.020Z,100942.73
2018-12-10T05:04:22.533Z,100932.04
2018-12-10T05:05:25.037Z,100936.50
2018-12-10T05:06:27.525Z,100941.20
2018-12-10T05:07:29.988Z,100943.22
2018-12-10T05:08:32.467Z,100954.88
2018-12-10T05:09:34.961Z,100952.13
2018-12-10T05:10:37.584Z,100958.28
2018-12-10T05:11:40.169Z,100956.66
2018-12-10T05:12:42.781Z,100959.66
2018-12-10T05:13:45.285Z,100955.77
2018-12-10T05:14:48.256Z,100965.02
2018-12-10T05:15:50.740Z,100967.23
2018-12-10T05:16:53.219Z,100962.16
2018-12-10T05:17:55.719Z,100956.66
2018-12-10T05:18:58.300Z,100965.03
2018-12-10T05:20:00.764Z,100970.23
2018-12-10T05:21:03.259Z,100961.39
2018-12-10T05:22:05.762Z,100964.55
2018-12-10T05:23:08.240Z,100967.73
2018-12-10T05:24:10.774Z,100960.04
2018-12-10T05:25:13.267Z,100964.98
2018-12-10T05:26:15.728Z,100959.77
2018-12-10T05:27:18.193Z,100964.73
2018-12-10T05:28:20.662Z,100971.11
2018-12-10T05:29:23.162Z,100970.62
2018-12-10T05:30:25.631Z,100973.39
2018-12-10T05:31:28.110Z,100974.20
2018-12-10T05:32:30.604Z,100976.14
2018-12-10T05:33:33.081Z,100976.22
2018-12-10T05:34:35.590Z,100974.92
2018-12-10T05:35:38.066Z,100975.81
2018-12-10T05:36:40.563Z,100977.52
2018-12-10T05:37:43.106Z,100983.36
2018-12-10T05:38:45.591Z,100983.41
2018-12-10T05:39:48.098Z,100989.00
2018-12-10T05:40:50.582Z,100981.62
2018-12-10T05:41:53.070Z,100984.38
2018-12-10T05:42:55.558Z,100985.02
2018-12-10T05:43:58.056Z,100990.05
2018-12-10T05:45:00.552Z,100998.03
2018-12-10T05:46:03.038Z,100996.45
2018-12-10T05:47:05.512Z,100994.52
2018-12-10T05:48:08.000Z,101004.55
2018-12-10T05:49:10.483Z,100996.37
2018-12-10T05:50:12.962Z,101009.33
2018-12-10T05:51:15.527Z,101006.90
2018-12-10T05:52:18.024Z,101009.16
2018-12-10T05:53:20.502Z,101014.75
2018-12-10T05:54:22.986Z,101018.06
2018-12-10T05:55:25.507Z,101010.09
2018-12-10T05:56:27.998Z,101008.99
2018-12-10T05:57:30.490Z,101004.22
2018-12-10T05:58:32.984Z,101009.33
2018-12-10T05:59:35.473Z,101011.86
2018-12-10T06:00:37.985Z,101013.63
2018-12-10T06:01:40.443Z,101007.64
2018-12-10T06:02:42.937Z,101000.86
2018-12-10T06:03:45.442Z,100999.41
2018-12-10T06:04:47.972Z,101002.64
2018-12-10T06:05:50.478Z,101003.45
2018-12-10T06:06:53.137Z,101007.84
2018-12-10T06:07:55.652Z,101008.08
2018-12-10T06:08:58.131Z,101007.14
2018-12-10T06:10:00.613Z,101001.38
2018-12-10T06:11:03.097Z,101008.00
2018-12-10T06:12:05.630Z,101006.95
2018-12-10T06:13:08.189Z,101003.95
2018-12-10T06:14:10.679Z,101002.00
2018-12-10T06:15:13.245Z,101000.95
2018-12-10T06:16:16.743Z,100993.56
2018-12-10T06:17:19.465Z,101004.59
2018-12-10T06:18:21.968Z,101004.59
2018-12-10T06:19:24.491Z,101008.48
2018-12-10T06:20:27.034Z,101014.31
2018-12-10T06:21:29.517Z,101018.53
2018-12-10T06:22:31.981Z,101018.91
2018-12-10T06:23:34.459Z,101022.55
2018-12-10T06:24:36.951Z,101025.14
2018-12-10T06:25:39.438Z,101023.03
2018-12-10T06:27:43.718Z,101029.47
2018-12-10T06:28:46.185Z,101027.33
2018-12-10T06:29:48.681Z,101031.30
2018-12-10T06:30:51.168Z,101033.55
2018-12-10T06:31:53.665Z,101030.55
2018-12-10T06:32:56.147Z,101041.90
2018-12-10T06:33:58.623Z,101044.97
2018-12-10T06:35:01.099Z,101045.86
2018-12-10T06:36:03.781Z,101052.22
2018-12-10T06:37:06.291Z,101044.28
2018-12-10T06:38:08.773Z,101049.78
2018-12-10T06:39:11.248Z,101051.80
2018-12-10T06:40:13.777Z,101051.31
2018-12-10T06:41:16.278Z,101054.14
2018-12-10T06:42:18.865Z,101062.16
2018-12-10T06:43:21.351Z,101065.23
2018-12-10T06:44:23.843Z,101064.42
2018-12-10T06:45:26.351Z,101057.57
2018-12-10T06:46:28.828Z,101058.41
2018-12-10T06:47:31.327Z,101057.33
2018-12-10T06:48:33.848Z,101058.45
2018-12-10T06:49:36.358Z,101048.64
2018-12-10T06:50:38.854Z,101055.28
2018-12-10T06:51:41.377Z,101060.30
2018-12-10T06:52:43.875Z,101060.61
2018-12-10T06:53:46.362Z,101055.42
2018-12-10T06:54:48.923Z,101055.98
2018-12-10T06:55:51.432Z,101061.53
2018-12-10T06:56:54.630Z,101060.16
2018-12-10T06:57:57.139Z,101061.85
2018-12-10T06:58:59.600Z,101066.23
2018-12-10T07:00:02.337Z,101066.23
2018-12-10T07:01:04.818Z,101071.48
2018-12-10T07:02:07.280Z,101068.23
2018-12-10T07:03:09.798Z,101073.75
2018-12-10T07:04:12.282Z,101071.31
2018-12-10T07:05:14.799Z,101072.38
2018-12-10T07:06:17.287Z,101067.75
2018-12-10T07:07:20.358Z,101066.19
2018-12-10T07:08:22.920Z,101071.20
2018-12-10T07:09:25.410Z,101074.02
2018-12-10T07:10:27.908Z,101069.37
2018-12-10T07:11:30.461Z,101073.50
2018-12-10T07:12:32.938Z,101075.75
2018-12-10T07:13:35.420Z,101075.01
2018-12-10T07:14:37.915Z,101078.39
2018-12-10T07:15:40.376Z,101073.27
2018-12-10T07:16:42.921Z,101074.97
2018-12-10T07:17:45.463Z,101075.00
2018-12-10T07:18:47.975Z,101073.12
2018-12-10T07:19:50.478Z,101073.69
2018-12-10T07:20:52.989Z,101075.38
2018-12-10T07:21:55.488Z,101067.63
2018-12-10T07:22:57.997Z,101070.38
2018-12-10T07:24:00.484Z,101073.12
2018-12-10T07:25:03.042Z,101077.88
2018-12-10T07:26:05.523Z,101079.86
2018-12-10T07:27:08.009Z,101078.86
2018-12-10T07:28:10.603Z,101078.09
2018-12-10T07:29:13.107Z,101085.66
2018-12-10T07:30:15.605Z,101084.28
2018-12-10T07:31:18.109Z,101082.22
2018-12-10T07:32:20.608Z,101087.50
2018-12-10T07:33:23.132Z,101085.69
2018-12-10T07:34:25.688Z,101089.88
2018-12-10T07:35:28.166Z,101084.19
2018-12-10T07:36:30.639Z,101088.59
2018-12-10T07:37:33.099Z,101090.53
2018-12-10T07:38:35.613Z,101092.78
2018-12-10T07:39:38.252Z,101092.53
2018-12-10T07:40:40.736Z,101099.16
2018-12-10T07:41:43.233Z,101098.65
2018-12-10T07:42:45.719Z,101092.65
2018-12-10T07:43:48.341Z,101092.96
2018-12-10T07:44:50.838Z,101097.65
2018-12-10T07:45:53.328Z,101101.52
2018-12-10T07:46:55.811Z,101095.77
2018-12-10T07:47:58.307Z,101102.14
2018-12-10T07:49:00.801Z,101100.77
2018-12-10T07:50:03.356Z,101101.86
2018-12-10T07:51:05.843Z,101105.98
2018-12-10T07:52:08.310Z,101112.35
2018-12-10T07:53:10.816Z,101107.42
2018-12-10T07:54:13.276Z,101112.10
2018-12-10T07:55:15.774Z,101106.91
2018-12-10T07:56:18.243Z,101106.66
2018-12-10T07:57:20.814Z,101103.66
2018-12-10T07:58:23.320Z,101109.72
2018-12-10T07:59:25.816Z,101108.09
2018-12-10T08:00:28.333Z,101107.84
2018-12-10T08:01:30.800Z,101111.16
2018-12-10T08:02:33.377Z,101112.28
2018-12-10T08:03:35.859Z,101119.15
2018-12-10T08:04:38.356Z,101117.27
2018-12-10T08:05:40.867Z,101115.08
2018-12-10T08:06:43.374Z,101120.58
2018-12-10T08:07:45.841Z,101116.17
2018-12-10T08:08:50.267Z,101117.05
2018-12-10T08:09:52.866Z,101126.11
2018-12-10T08:10:55.374Z,101123.66
2018-12-10T08:11:57.845Z,101127.53
2018-12-10T08:13:00.356Z,101128.09
2018-12-10T08:14:03.654Z,101130.03
2018-12-10T08:15:06.634Z,101132.53
2018-12-10T08:16:09.152Z,101134.20
2018-12-10T08:17:11.633Z,101136.39
2018-12-10T08:18:14.133Z,101140.27
2018-12-10T08:19:16.627Z,101144.70
2018-12-10T08:20:19.110Z,101143.06
2018-12-10T08:21:21.619Z,101138.70
2018-12-10T08:22:24.124Z,101141.45
2018-12-10T08:23:26.614Z,101143.13
2018-12-10T08:24:29.251Z,101139.56
2018-12-10T08:25:31.887Z,101138.75
2018-12-10T08:26:34.405Z,101136.28
2018-12-10T08:27:36.917Z,101136.84
2018-12-10T08:28:39.451Z,101139.59
2018-12-10T08:29:41.949Z,101137.40
2018-12-10T08:30:44.497Z,101137.40
2018-12-10T08:31:46.973Z,101139.34
2018-12-10T08:32:49.455Z,101141.83
2018-12-10T08:33:52.187Z,101145.95
2018-12-10T08:34:54.754Z,101147.07
2018-12-10T08:35:57.239Z,101153.69
2018-12-10T08:36:59.735Z,101145.19
2018-12-10T08:38:02.211Z,101153.73
2018-12-10T08:39:06.518Z,101149.06
2018-12-10T08:40:09.122Z,101148.80
2018-12-10T08:41:11.625Z,101155.67
2018-12-10T08:42:14.125Z,101158.17
2018-12-10T08:43:16.608Z,101162.85
2018-12-10T08:44:19.106Z,101153.80
2018-12-10T08:45:21.560Z,101159.84
2018-12-10T08:46:24.116Z,101160.38
2018-12-10T08:47:26.618Z,101165.06
2018-12-10T08:48:29.085Z,101156.00
2018-12-10T08:49:31.570Z,101164.80
2018-12-10T08:50:34.103Z,101165.36
2018-12-10T08:51:36.586Z,101157.69
2018-12-10T08:52:39.064Z,101162.33
2018-12-10T08:53:41.566Z,101161.83
2018-12-10T08:54:44.121Z,101161.83
2018-12-10T08:55:46.603Z,101163.76
2018-12-10T08:56:49.078Z,101166.25
2018-12-10T08:57:51.555Z,101164.62
2018-12-10T08:58:54.047Z,101169.56
2018-12-10T08:59:56.511Z,101169.05
2018-12-10T09:00:59.003Z,101169.05
2018-12-10T09:02:01.540Z,101168.55
2018-12-10T09:03:04.059Z,101171.29
2018-12-10T09:04:06.559Z,101176.22
2018-12-10T09:05:09.042Z,101174.34
2018-12-10T09:06:11.550Z,101176.27
2018-12-10T09:07:14.041Z,101172.16
2018-12-10T09:08:16.523Z,101171.64
2018-12-10T09:09:19.087Z,101175.77
2018-12-10T09:10:21.557Z,101180.45
2018-12-10T09:11:24.065Z,101182.63
2018-12-10T09:12:26.653Z,101189.25
2018-12-10T09:13:29.189Z,101188.17
2018-12-10T09:14:31.766Z,101188.70
2018-12-10T09:15:34.276Z,101190.08
2018-12-10T09:16:36.773Z,101193.13
2018-12-10T09:17:39.293Z,101199.73
2018-12-10T09:18:41.865Z,101197.55
2018-12-10T09:19:44.365Z,101207.98
2018-12-10T09:20:47.095Z,101215.41
2018-12-10T09:21:49.694Z,101206.35
2018-12-10T09:22:52.198Z,101206.66
2018-12-10T09:23:54.719Z,101208.03
2018-12-10T09:24:57.180Z,101207.52
2018-12-10T09:25:59.658Z,101211.89
2018-12-10T09:27:02.132Z,101213.01
2018-12-10T09:28:04.611Z,101203.95
2018-12-10T09:29:07.105Z,101201.77
2018-12-10T09:30:10.746Z,101210.31
2018-12-10T09:31:13.237Z,101202.07
2018-12-10T09:32:15.701Z,101212.24
2018-12-10T09:33:18.196Z,101209.24
2018-12-10T09:34:20.694Z,101211.17
2018-12-10T09:35:23.186Z,101204.86
2018-12-10T09:36:25.690Z,101216.41
2018-12-10T09:37:28.192Z,101210.10
2018-12-10T09:38:30.687Z,101208.47
2018-12-10T09:39:33.159Z,101212.59
2018-12-10T09:40:35.653Z,101210.93
2018-12-10T09:41:38.142Z,101217.23
2018-12-10T09:42:40.612Z,101210.67
2018-12-10T09:43:43.100Z,101207.93
2018-12-10T09:44:45.594Z,101204.93
2018-12-10T09:45:48.089Z,101206.30
2018-12-10T09:46:58.529Z,101205.48
2018-12-10T09:47:55.210Z,101206.05
2018-12-10T09:48:57.682Z,101210.72
2018-12-10T09:50:00.157Z,101207.72
2018-12-10T09:51:02.619Z,101211.58
2018-12-10T09:52:05.101Z,101212.40
2018-12-10T09:53:07.580Z,101212.14
2018-12-10T09:54:10.040Z,101213.77
2018-12-10T09:55:12.553Z,101212.14
2018-12-10T09:56:15.034Z,101207.77
2018-12-10T09:57:17.510Z,101214.38
2018-12-10T09:58:20.004Z,101205.33
2018-12-10T09:59:23.005Z,101205.88
2018-12-10T10:00:25.551Z,101210.00
2018-12-10T10:01:28.163Z,101214.68
2018-12-10T10:02:30.645Z,101211.67
2018-12-10T10:03:33.132Z,101221.84
2018-12-10T10:04:35.626Z,101218.84
2018-12-10T10:05:38.095Z,101214.72
2018-12-10T10:06:40.609Z,101215.54
2018-12-10T10:07:43.100Z,101209.23
2018-12-10T10:08:45.582Z,101216.40
2018-12-10T10:09:48.089Z,101214.18
2018-12-10T10:10:50.556Z,101219.14
2018-12-10T10:11:53.032Z,101218.86
2018-12-10T10:12:55.514Z,101218.05
2018-12-10T10:13:58.009Z,101210.11
2018-12-10T10:15:00.521Z,101216.41
2018-12-10T10:16:02.976Z,101207.66
2018-12-10T10:17:05.440Z,101208.48
2018-12-10T10:18:07.943Z,101217.02
2018-12-10T10:19:10.427Z,101215.64
2018-12-10T10:20:12.960Z,101214.27
2018-12-10T10:21:15.439Z,101216.20
2018-12-10T10:22:17.922Z,101213.20
2018-12-10T10:23:20.388Z,101213.20
2018-12-10T10:24:22.902Z,101210.20
2018-12-10T10:25:25.379Z,101207.45
2018-12-10T10:26:27.856Z,101212.39
2018-12-10T10:27:30.347Z,101209.13
2018-12-10T10:28:32.838Z,101211.62
2018-12-10T10:29:35.311Z,101205.57
2018-12-10T10:30:43.739Z,101206.13
2018-12-10T10:31:42.402Z,101199.82
2018-12-10T10:32:44.860Z,101205.05
2018-12-10T10:33:47.355Z,101205.87
2018-12-10T10:34:49.854Z,101211.10
2018-12-10T10:35:52.391Z,101213.84
2018-12-10T10:36:54.863Z,101213.29
2018-12-10T10:37:57.339Z,101209.47
2018-12-10T10:38:59.840Z,101210.84
2018-12-10T10:40:02.312Z,101212.77
2018-12-10T10:41:04.780Z,101205.09
2018-12-10T10:42:07.255Z,101200.70
2018-12-10T10:43:09.735Z,101210.59
2018-12-10T10:44:12.259Z,101205.92
2018-12-10T10:45:14.757Z,101210.60
2018-12-10T10:46:17.216Z,101212.79
2018-12-10T10:47:19.791Z,101205.67
2018-12-10T10:48:22.306Z,101209.23
2018-12-10T10:49:24.771Z,101209.78
2018-12-10T10:50:27.249Z,101210.34
2018-12-10T10:51:29.795Z,101205.67
2018-12-10T10:52:33.359Z,101206.53
2018-12-10T10:53:36.185Z,101205.97
2018-12-10T10:54:38.673Z,101212.02
2018-12-10T10:55:41.148Z,101214.77
2018-12-10T10:56:43.629Z,101211.20
2018-12-10T10:57:46.111Z,101202.16
2018-12-10T10:58:48.599Z,101206.27
2018-12-10T10:59:51.083Z,101200.52
2018-12-10T11:00:59.156Z,101204.38
2018-12-10T11:02:03.609Z,101197.52
2018-12-10T11:03:08.062Z,101200.83
2018-12-10T11:04:10.692Z,101199.45
2018-12-10T11:05:13.348Z,101201.94
2018-12-10T11:06:15.917Z,101204.13
2018-12-10T11:07:18.404Z,101197.02
2018-12-10T11:08:20.887Z,101190.70
2018-12-10T11:09:23.384Z,101193.16
2018-12-10T11:10:25.886Z,101194.44
2018-12-10T11:11:28.384Z,101199.06
2018-12-10T11:12:30.897Z,101200.18
2018-12-10T11:13:33.379Z,101202.92
2018-12-10T11:14:35.875Z,101191.95
2018-12-10T11:15:38.430Z,101198.55
2018-12-10T11:16:40.986Z,101194.69
2018-12-10T11:17:43.453Z,101190.31
2018-12-10T11:18:45.952Z,101198.25
2018-12-10T11:19:48.452Z,101201.51
2018-12-10T11:20:50.993Z,101193.58
2018-12-10T11:21:53.462Z,101200.44
2018-12-10T11:22:55.931Z,101191.95
2018-12-10T11:23:58.397Z,101188.95
2018-12-10T11:25:00.913Z,101191.44
2018-12-10T11:26:03.452Z,101182.39
2018-12-10T11:27:05.988Z,101181.31
2018-12-10T11:28:08.491Z,101189.29
2018-12-10T11:29:11.062Z,101190.41
2018-12-10T11:30:13.608Z,101183.29
2018-12-10T11:31:17.320Z,101181.10
2018-12-10T11:32:20.258Z,101178.92
2018-12-10T11:33:22.738Z,101181.14
2018-12-10T11:34:25.220Z,101183.08
2018-12-10T11:35:27.876Z,101193.23
2018-12-10T11:36:30.340Z,101189.69
2018-12-10T11:37:32.840Z,101187.77
2018-12-10T11:38:35.322Z,101183.95
2018-12-10T11:39:37.810Z,101187.25
2018-12-10T11:40:40.318Z,101187.80
2018-12-10T11:41:42.797Z,101179.06
2018-12-10T11:42:45.286Z,101177.69
2018-12-10T11:43:47.969Z,101174.95
2018-12-10T11:44:50.563Z,101170.57
2018-12-10T11:45:53.154Z,101173.06
2018-12-10T11:46:55.640Z,101170.88
2018-12-10T11:47:58.134Z,101176.66
2018-12-10T11:49:00.620Z,101175.55
2018-12-10T11:50:04.262Z,101165.42
2018-12-10T11:51:06.752Z,101172.28
2018-12-10T11:52:09.249Z,101173.66
2018-12-10T11:53:11.719Z,101184.93
2018-12-10T11:54:14.257Z,101186.86
2018-12-10T11:55:16.721Z,101189.61
2018-12-10T11:56:19.237Z,101178.63
2018-12-10T11:57:21.767Z,101181.12
2018-12-10T11:58:24.262Z,101187.98
2018-12-10T11:59:26.765Z,101175.08
2018-12-10T12:00:29.702Z,101177.83